• Join FlightAware (Why Join?)
  • Login
  • US Flag 
12:48PM EDT


 

Airport Tracker/Info


-or-


 

Live Flight TrackerFlight Track Log ✈ FIV428 ✈ 16-Sep-2013 ✈ KSNK - KLAX

Flight Track Log - Related Links

Times and Time Zones

All times are in EDT time to prevent confusion due to time zone crossing. See the FIV428 flight status page for this flight to view local times or setup timezone preferences in your user account.

Time Position Orientation Groundspeed Altitude Reporting Facility
EDT Latitude Longitude Course Direction KTS MPH feet Rate Location/Type
02:51PM 32.5850 -100.9589 272° West 336 387 6,000  Level Fort Worth Center
02:52PM 32.5869 -101.0378 272° West 251 289 9,700 3,420 Climbing Fort Worth Center
02:53PM 32.5972 -101.1122 279° West 231 266 13,000 3,000 Climbing Fort Worth Center
02:54PM 32.6439 -101.1536 323° Northwest 179 206 15,800 2,460 Climbing Fort Worth Center
02:55PM 32.6800 -101.2019 312° West 189 217 17,900 1,800 Climbing Fort Worth Center
02:56PM 32.7033 -101.2647 294° West 195 224 19,500 1,800 Climbing Fort Worth Center
02:57PM 32.7322 -101.3375 295° West 219 252 21,600 1,920 Climbing Fort Worth Center
02:58PM 32.7592 -101.4103 294° West 233 268 23,400 1,680 Climbing Fort Worth Center
02:59PM 32.7900 -101.4883 295° West 248 285 25,000 1,560 Climbing Fort Worth Center
03:00PM 32.8292 -101.5717 299° West 268 308 26,600 1,500 Climbing Fort Worth Center
03:01PM 32.8597 -101.6547 294° West 293 337 28,100 1,500 Climbing Fort Worth Center
03:02PM 32.8961 -101.7453 296° West 304 350 29,700 1,560 Climbing Fort Worth Center
03:03PM 32.9386 -101.8439 297° West 311 358 31,300 1,500 Climbing Fort Worth Center
03:04PM 32.9675 -101.9147 296° West 284 327 32,800 1,500 Climbing Fort Worth Center
03:05PM 33.0097 -102.0161 296° West 289 333 34,300 1,200 Climbing Fort Worth Center
03:06PM 33.0400 -102.0967 294° West 299 344 35,300 1,020 Climbing Fort Worth Center
03:07PM 33.0797 -102.2056 294° West 321 369 36,400 960 Climbing Fort Worth Center
03:08PM 33.1161 -102.2942 296° West 328 377 37,300 900 Climbing Fort Worth Center
03:09PM 33.1556 -102.4056 293° West 323 372 38,300 840 Climbing Fort Worth Center
03:10PM 33.1917 -102.4944 296° West 329 379 39,000 720 Climbing Fort Worth Center
03:11PM 33.2353 -102.6011 296° West 329 379 39,800 480 Climbing Fort Worth Center
03:12PM 33.2744 -102.7128 293° West 353 406 40,000 60 Climbing Fort Worth Center
03:14PM 33.3722 -102.9558 296° West 384 442 40,000  Level Albuquerque Center
03:15PM 33.4253 -103.0986 294° West 390 449 40,000  Level Albuquerque Center
03:16PM 33.4703 -103.2153 295° West 389 448 40,000  Level Albuquerque Center
03:17PM 33.5147 -103.3306 295° West 385 443 40,000  Level Albuquerque Center
03:19PM 33.5589 -103.4503 294° West 389 448 40,000  Level Albuquerque Center
03:20PM 33.6031 -103.5678 294° West 390 449 40,000  Level Albuquerque Center
03:21PM 33.6531 -103.7028 294° West 391 450 40,000  Level Albuquerque Center
03:22PM 33.7006 -103.8297 294° West 389 448 40,000  Level Albuquerque Center
03:23PM 33.7456 -103.9492 294° West 392 451 40,000  Level Albuquerque Center
03:24PM 33.7931 -104.0758 294° West 391 450 40,000  Level Albuquerque Center
03:25PM 33.8356 -104.1947 293° West 389 448 40,000  Level Albuquerque Center
03:26PM 33.8822 -104.3225 294° West 390 449 40,000  Level Albuquerque Center
03:27PM 33.9256 -104.4411 294° West 389 448 40,000  Level Albuquerque Center
03:28PM 33.9681 -104.5606 293° West 389 448 40,000  Level Albuquerque Center
03:29PM 34.0142 -104.6881 294° West 388 447 40,000  Level Albuquerque Center
03:30PM 34.0556 -104.8000 294° West 387 445 40,000  Level Albuquerque Center
03:31PM 34.0989 -104.9208 293° West 388 447 40,000  Level Albuquerque Center
03:32PM 34.1414 -105.0394 293° West 383 441 40,000  Level Albuquerque Center
03:33PM 34.1919 -105.1811 293° West 387 445 40,000  Level Albuquerque Center
03:34PM 34.2350 -105.3028 293° West 390 449 40,000  Level Albuquerque Center
03:35PM 34.2786 -105.4236 294° West 389 448 40,000  Level Albuquerque Center
03:36PM 34.3206 -105.5456 293° West 388 447 40,000  Level Albuquerque Center
03:37PM 34.3625 -105.6669 293° West 387 445 40,000  Level Albuquerque Center
03:38PM 34.3728 -105.7947 276° West 383 441 40,000  Level Albuquerque Center
03:39PM 34.3811 -105.9269 274° West 388 447 40,000  Level Albuquerque Center
03:40PM 34.3883 -106.0553 274° West 383 441 40,000  Level Albuquerque Center
03:41PM 34.3939 -106.1853 273° West 383 441 40,000  Level Albuquerque Center
03:42PM 34.4017 -106.3153 274° West 387 445 40,000  Level Albuquerque Center
03:43PM 34.4083 -106.4450 274° West 386 444 40,000  Level Albuquerque Center
03:44PM 34.4167 -106.6042 274° West 387 445 40,000  Level Albuquerque Center
03:45PM 34.4233 -106.7333 274° West 386 444 40,000  Level Albuquerque Center
03:46PM 34.4306 -106.8719 274° West 383 441 40,000  Level Albuquerque Center
03:47PM 34.4358 -107.0003 273° West 381 438 40,000  Level Albuquerque Center
03:48PM 34.4428 -107.1289 274° West 381 438 40,000  Level Albuquerque Center
03:49PM 34.4453 -107.2497 271° West 385 443 40,000  Level Albuquerque Center
03:50PM 34.4511 -107.3783 273° West 383 441 40,000  Level Albuquerque Center
03:52PM 34.4561 -107.5067 273° West 382 440 40,000  Level Albuquerque Center
03:53PM 34.4628 -107.6619 273° West 382 440 40,000  Level Albuquerque Center
03:54PM 34.4681 -107.7908 273° West 383 441 40,000  Level Albuquerque Center
03:55PM 34.4739 -107.9197 273° West 382 440 40,000  Level Albuquerque Center
03:56PM 34.4800 -108.0475 273° West 381 438 40,000  Level Albuquerque Center
03:57PM 34.4839 -108.1750 272° West 380 437 40,000  Level Albuquerque Center
03:58PM 34.4883 -108.3036 272° West 382 440 40,000  Level Albuquerque Center
03:59PM 34.4936 -108.4344 273° West 386 444 40,000  Level Albuquerque Center
04:00PM 34.4989 -108.5794 273° West 380 437 40,000  Level Albuquerque Center
04:01PM 34.5039 -108.7225 272° West 378 435 40,000  Level Albuquerque Center
04:02PM 34.5078 -108.8444 272° West 379 436 40,000  Level Albuquerque Center
04:03PM 34.5108 -108.9678 272° West 380 437 40,000  Level Albuquerque Center
04:04PM 34.5158 -109.1117 272° West 382 440 40,000  Level Albuquerque Center
04:05PM 34.5197 -109.2361 272° West 383 441 40,000  Level Albuquerque Center
04:06PM 34.5231 -109.3814 272° West 384 442 40,000  Level Albuquerque Center
04:07PM 34.5267 -109.5039 272° West 384 442 40,000  Level Albuquerque Center
04:08PM 34.5306 -109.6472 272° West 381 438 40,000  Level Albuquerque Center
04:09PM 34.5333 -109.7697 272° West 380 437 40,000  Level Albuquerque Center
04:10PM 34.5369 -109.9131 272° West 382 440 40,000  Level Albuquerque Center
04:11PM 34.5381 -110.0336 271° West 377 434 40,000  Level Albuquerque Center
04:12PM 34.5431 -110.1772 272° West 379 436 40,000  Level Albuquerque Center
04:13PM 34.5453 -110.3000 271° West 380 437 40,000  Level Albuquerque Center
04:14PM 34.5475 -110.4214 271° West 378 435 40,000  Level Albuquerque Center
04:15PM 34.5506 -110.5622 272° West 375 432 40,000  Level Albuquerque Center
04:16PM 34.5525 -110.6836 271° West 375 432 40,000  Level Albuquerque Center
04:17PM 34.5511 -110.8233 269° West 373 429 40,000  Level Albuquerque Center
04:18PM 34.5544 -110.9494 272° West 375 432 40,000  Level Albuquerque Center
04:19PM 34.5553 -111.0747 270° West 374 430 40,000  Level Albuquerque Center
04:20PM 34.5575 -111.1992 271° West 372 428 40,000  Level Albuquerque Center
04:21PM 34.5586 -111.3236 271° West 371 427 40,000  Level Albuquerque Center
04:22PM 34.5603 -111.4728 271° West 372 428 40,000  Level Albuquerque Center
04:24PM 34.5614 -111.5972 271° West 371 427 40,000  Level Albuquerque Center
04:25PM 34.5625 -111.7211 271° West 370 426 40,000  Level Albuquerque Center
04:26PM 34.5639 -111.8444 271° West 369 425 40,000  Level Albuquerque Center
04:27PM 34.5639 -111.9683 270° West 370 426 40,000  Level Albuquerque Center
04:28PM 34.5603 -112.0911 268° West 368 423 40,000  Level Albuquerque Center
04:29PM 34.5439 -112.2386 262° West 370 426 40,000  Level Albuquerque Center
04:30PM 34.5308 -112.3608 263° West 370 426 40,000  Level Albuquerque Center
04:31PM 34.5178 -112.4844 263° West 371 427 40,000  Level Albuquerque Center
04:32PM 34.5044 -112.6086 263° West 371 427 40,000  Level Albuquerque Center
04:33PM 34.4903 -112.7333 262° West 373 429 40,000  Level Albuquerque Center
04:34PM 34.4736 -112.8831 262° West 374 430 40,000  Level Albuquerque Center
04:35PM 34.4594 -113.0078 262° West 374 430 40,000  Level Albuquerque Center
04:36PM 34.4458 -113.1325 262° West 375 432 40,000  Level Albuquerque Center
04:37PM 34.4311 -113.2572 262° West 375 432 40,000  Level Albuquerque Center
04:38PM 34.4161 -113.3806 262° West 373 429 40,000  Level Albuquerque Center
04:39PM 34.4011 -113.5064 262° West 376 433 40,000  Level Albuquerque Center
04:40PM 34.3858 -113.6372 262° West 375 432 40,000  Level Albuquerque Center
04:41PM 34.3667 -113.7883 261° West 378 435 40,000  Level Albuquerque Center
04:42PM 34.3508 -113.9133 261° West 376 433 40,000  Level Albuquerque Center
04:43PM 34.3356 -114.0372 262° West 374 430 40,000  Level Albuquerque Center
04:44PM 34.3208 -114.1608 262° West 372 428 40,000  Level Albuquerque Center
04:45PM 34.3064 -114.2856 262° West 373 429 40,000  Level Albuquerque Center
04:46PM 34.2911 -114.4094 262° West 373 429 40,000  Level Albuquerque Center
04:47PM 34.2750 -114.5344 261° West 375 432 40,000  Level Albuquerque Center
04:49PM 34.2528 -114.7175 262° West 372 428 40,000  Level Los Angeles Center
04:50PM 34.2367 -114.8403 261° West 372 428 40,000  Level Los Angeles Center
04:51PM 34.2211 -114.9636 261° West 373 429 40,000  Level Los Angeles Center
04:52PM 34.2022 -115.1092 261° West 368 423 40,000  Level Los Angeles Center
04:53PM 34.1889 -115.2069 261° West 368 423 40,000  Level Los Angeles Center
04:54PM 34.1694 -115.3519 261° West 367 422 40,000 -600 Level Los Angeles Center
04:55PM 34.1544 -115.4697 261° West 357 411 38,800 -1,560 Descending Los Angeles Center
04:56PM 34.1372 -115.5847 260° West 352 405 36,800 -1,980 Descending Los Angeles Center
04:57PM 34.1214 -115.7061 261° West 364 419 34,800 -2,160 Descending Los Angeles Center
04:58PM 34.1019 -115.8517 261° West 367 422 32,400 -2,160 Descending Los Angeles Center
04:59PM 34.0822 -115.9722 259° West 367 422 30,400 -1,980 Descending Los Angeles Center
05:00PM 34.0650 -116.0978 261° West 378 435 28,400 -1,980 Descending Los Angeles Center
05:01PM 34.0458 -116.2222 260° West 379 436 26,400 -1,980 Descending Los Angeles Center
05:02PM 34.0275 -116.3467 260° West 379 436 24,400 -1,200 Descending Los Angeles Center
05:03PM 34.0056 -116.4936 260° West 375 432 24,000 -360 Descending Los Angeles Center
05:04PM 33.9958 -116.6119 264° West 362 417 23,700 -840 Descending Los Angeles Center
05:05PM 33.9869 -116.7214 264° West 339 390 22,300 -1,320 Descending Los Angeles Center
05:07PM 33.9792 -116.8319 265° West 333 383 20,800 -1,500 Descending Los Angeles Center
05:08PM 33.9681 -116.9664 264° West 337 388 19,000 -1,740 Descending Los Angeles Center
05:08PM 33.9500 -117.0833 259° West 322 371 17,400 -1,920 Descending Southern California TRACON
05:09PM 33.9500 -117.1833 270° West 309 356 15,500 -1,200 Descending Southern California TRACON
05:10PM 33.9333 -117.2833 259° West 302 348 15,000 -720 Descending Southern California TRACON
05:11PM 33.9333 -117.3833 270° West 311 358 14,000 -1,260 Descending Southern California TRACON
05:12PM 33.9667 -117.4833 292° West 291 335 12,500 -1,020 Descending Southern California TRACON
05:14PM 34.0000 -117.5833 292° West 301 346 12,000 -300 Descending Southern California TRACON
05:15PM 34.0000 -117.6667 270° West 282 325 12,000 -900 Level Southern California TRACON
05:16PM 33.9833 -117.7500 256° West 256 295 10,200 -1,500 Descending Southern California TRACON
05:17PM 33.9833 -117.8333 270° West 237 273 9,100 -900 Descending Southern California TRACON
05:18PM 33.9833 -117.9000 270° West 206 237 8,400 -1,020 Descending Southern California TRACON
05:19PM 33.9833 -117.9667 270° West 206 237 7,100 -1,260 Descending Southern California TRACON
05:20PM 33.9667 -118.0333 253° West 190 219 5,900 -1,200 Descending Southern California TRACON
05:21PM 33.9667 -118.1167 270° West 195 224 4,700 -1,140 Descending Southern California TRACON
05:22PM 33.9667 -118.1667 270° West 199 229 3,700 -1,080 Descending Southern California TRACON
05:22PM 33.9572 -118.1953 248° West 197 227 3,200 -960 Descending Los Angeles Center
05:23PM 33.9506 -118.2561 262° West 191 220 2,200 -960 Descending Los Angeles Center
05:24PM 33.9436 -118.3203 263° West 168 193 1,300 -780 Descending Los Angeles Center
05:25PM 33.9411 -118.3556 265° West 127 146 700 -540 Descending Los Angeles Center
05:26PM 33.9372 -118.3928 263° West 115 132 300 -420 Descending Los Angeles Center
05:28PM 33.9333 -118.4000 270° West  Level FlightAware Approximate
05:35PM 33.9425 -118.4081 270° West  Level Estimated